Time;durP1;ratioP1;P1;durP2;ratioP2;P2;SDS_P1;SDS_P2;PMS_P1;PMS_P2;Temp;Humidity;BMP_temperature;BMP_pressure;BME280_temperature;BME280_humidity;BME280_pressure;Samples;Min_cycle;Max_cycle;Signal;HPM_P1;HPM_P2
2022/10/28 00:01:16;;;;;;;4.82;3.78;;;12.90;85.20;;;;;;4998768;28;20425;-60
2022/10/28 00:03:51;;;;;;;6.55;3.88;;;12.90;85.20;;;;;;5000475;28;20041;-60
2022/10/28 00:06:21;;;;;;;7.28;3.65;;;12.90;85.20;;;;;;5001877;28;20161;-60
2022/10/28 00:08:47;;;;;;;8.85;3.72;;;12.90;85.00;;;;;;4998021;28;20580;-60
2022/10/28 00:11:21;;;;;;;5.82;4.05;;;12.80;85.00;;;;;;5000353;28;20407;-59
2022/10/28 00:13:47;;;;;;;5.35;3.83;;;12.80;85.00;;;;;;5001292;28;20132;-61
2022/10/28 00:16:19;;;;;;;5.63;4.00;;;12.80;85.00;;;;;;5000702;28;20076;-61
2022/10/28 00:18:46;;;;;;;6.75;3.80;;;12.80;85.10;;;;;;4997097;28;20132;-61
2022/10/28 00:21:18;;;;;;;7.90;4.25;;;12.70;85.00;;;;;;5000344;28;20041;-60
2022/10/28 00:23:44;;;;;;;4.95;3.70;;;12.60;85.20;;;;;;4998202;28;20073;-61
2022/10/28 00:26:17;;;;;;;9.60;4.00;;;12.60;85.20;;;;;;5000067;28;20076;-61
2022/10/28 00:28:49;;;;;;;4.50;3.92;;;12.60;85.70;;;;;;5002484;28;20034;-61
2022/10/28 00:31:17;;;;;;;6.57;4.10;;;12.50;85.70;;;;;;5000833;28;20540;-61
2022/10/28 00:33:43;;;;;;;6.57;3.88;;;12.50;85.80;;;;;;5000599;28;20559;-59
2022/10/28 00:36:12;;;;;;;6.45;4.00;;;12.50;85.90;;;;;;4996000;28;20422;-60
2022/10/28 00:38:39;;;;;;;8.07;4.18;;;12.50;86.00;;;;;;4998520;28;20108;-61
2022/10/28 00:41:05;;;;;;;9.68;4.20;;;12.50;86.00;;;;;;4999220;28;20042;-60
2022/10/28 00:43:40;;;;;;;7.43;4.03;;;12.50;86.00;;;;;;5003287;28;20029;-61
2022/10/28 00:46:32;;;;;;;6.78;4.13;;;12.50;86.20;;;;;;5002407;28;20030;-60
2022/10/28 00:49:05;;;;;;;8.15;3.88;;;12.50;86.40;;;;;;5001120;28;20048;-60
2022/10/28 00:51:33;;;;;;;6.25;3.67;;;12.50;86.20;;;;;;5002174;28;20549;-62
2022/10/28 00:53:59;;;;;;;7.70;4.00;;;12.50;86.20;;;;;;5004542;28;20105;-60
2022/10/28 00:56:29;;;;;;;8.80;3.70;;;12.50;86.10;;;;;;5001928;28;20046;-63
2022/10/28 00:58:58;;;;;;;6.00;3.80;;;12.50;86.00;;;;;;5000261;28;20567;-60
2022/10/28 01:01:23;;;;;;;9.00;3.95;;;12.50;86.00;;;;;;5000680;28;20128;-61
2022/10/28 01:03:49;;;;;;;7.63;3.95;;;12.40;86.00;;;;;;4998423;28;20519;-61
2022/10/28 01:06:15;;;;;;;7.13;3.78;;;12.50;86.10;;;;;;5000132;28;20061;-61
2022/10/28 01:08:41;;;;;;;5.70;3.60;;;12.50;86.00;;;;;;4998367;28;20044;-62
2022/10/28 01:11:38;;;;;;;5.55;4.05;;;12.40;85.90;;;;;;4999230;28;20030;-60
2022/10/28 01:14:25;;;;;;;6.03;4.00;;;12.40;86.20;;;;;;4997199;28;20076;-60
2022/10/28 01:17:06;;;;;;;4.85;3.53;;;12.40;86.20;;;;;;4999208;28;20026;-60
2022/10/28 01:20:09;;;;;;;6.55;3.60;;;12.30;86.20;;;;;;4996896;28;20394;-59
2022/10/28 01:22:46;;;;;;;5.75;3.90;;;12.30;86.60;;;;;;4995104;28;20033;-60
2022/10/28 01:25:41;;;;;;;7.53;3.95;;;12.30;86.50;;;;;;4996967;28;20041;-61
2022/10/28 01:28:22;;;;;;;4.68;3.63;;;12.30;86.70;;;;;;4999568;28;20108;-60
2022/10/28 01:31:18;;;;;;;5.32;4.07;;;12.30;86.30;;;;;;4998920;28;20521;-60
2022/10/28 01:33:46;;;;;;;;;;;12.30;86.40;;;;;;4995365;28;20042;-62
2022/10/28 01:36:26;;;;;;;6.10;3.80;;;12.30;86.60;;;;;;4996751;28;19917;-58
2022/10/28 01:39:31;;;;;;;5.60;3.72;;;12.30;86.00;;;;;;4997779;28;20631;-60
2022/10/28 01:42:15;;;;;;;4.63;3.80;;;12.30;86.00;;;;;;4993166;28;20500;-61
2022/10/28 01:44:55;;;;;;;6.07;4.17;;;12.40;85.90;;;;;;4998235;28;20028;-61
2022/10/28 01:47:27;;;;;;;6.90;4.15;;;12.30;85.90;;;;;;5002129;28;20033;-59
2022/10/28 01:50:01;;;;;;;5.40;4.40;;;12.40;85.90;;;;;;4999928;28;20037;-60
2022/10/28 01:52:29;;;;;;;6.18;4.18;;;12.40;85.90;;;;;;4997096;28;20462;-61
2022/10/28 01:55:02;;;;;;;7.30;3.85;;;12.40;85.70;;;;;;4998026;28;20045;-61
2022/10/28 01:57:30;;;;;;;4.85;3.88;;;12.40;85.90;;;;;;4998703;28;20030;-60
2022/10/28 01:59:56;;;;;;;8.00;4.05;;;12.30;85.80;;;;;;4999267;28;20038;-59
2022/10/28 02:02:22;;;;;;;8.98;4.38;;;12.30;85.90;;;;;;5000999;28;20044;-61
2022/10/28 02:04:48;;;;;;;7.93;4.60;;;12.30;85.90;;;;;;4998203;28;20246;-61
2022/10/28 02:07:14;;;;;;;7.38;4.38;;;12.40;85.90;;;;;;4999286;28;20041;-60
2022/10/28 02:10:00;;;;;;;7.13;4.80;;;12.30;85.70;;;;;;4997773;28;20516;-61
2022/10/28 02:12:32;;;;;;;6.10;4.68;;;12.30;85.80;;;;;;4996443;28;20045;-62
2022/10/28 02:15:22;;;;;;;8.13;4.90;;;12.30;85.70;;;;;;4995884;28;20045;-59
2022/10/28 02:18:09;;;;;;;6.32;4.05;;;12.30;85.70;;;;;;5001474;28;20100;-61
2022/10/28 02:20:54;;;;;;;6.93;4.25;;;12.20;85.80;;;;;;4996029;28;20037;-61
2022/10/28 02:23:40;;;;;;;5.78;4.53;;;12.20;85.90;;;;;;4999337;28;20612;-58
2022/10/28 02:26:26;;;;;;;6.53;4.75;;;12.20;85.80;;;;;;4997311;28;20034;-61
2022/10/28 02:29:13;;;;;;;5.75;4.53;;;12.10;85.90;;;;;;4998909;28;20065;-59
2022/10/28 02:31:46;;;;;;;6.32;4.45;;;12.10;86.30;;;;;;5000271;28;20049;-61
2022/10/28 02:34:17;;;;;;;7.45;4.13;;;12.10;86.00;;;;;;4998332;28;20044;-61
2022/10/28 02:36:46;;;;;;;8.50;4.47;;;12.10;85.90;;;;;;4995712;28;20053;-61
2022/10/28 02:39:15;;;;;;;6.07;4.40;;;12.10;85.90;;;;;;4998651;28;20042;-61
2022/10/28 02:41:47;;;;;;;6.07;4.45;;;12.10;85.80;;;;;;5004592;28;20049;-61
2022/10/28 02:44:24;;;;;;;7.90;4.32;;;12.10;85.70;;;;;;5006455;28;20030;-61
2022/10/28 02:46:51;;;;;;;4.95;4.07;;;12.10;85.80;;;;;;5006030;28;20096;-62
2022/10/28 02:49:16;;;;;;;5.97;3.97;;;12.00;85.60;;;;;;5004087;28;20038;-61
2022/10/28 02:51:51;;;;;;;6.85;4.15;;;12.00;85.50;;;;;;5004860;28;20452;-61
2022/10/28 02:54:20;;;;;;;7.05;4.20;;;12.00;85.60;;;;;;5003619;28;20049;-60
2022/10/28 02:56:54;;;;;;;4.35;3.78;;;12.00;85.50;;;;;;4997012;28;20065;-61
2022/10/28 02:59:22;;;;;;;4.68;4.03;;;11.90;85.50;;;;;;4996837;28;20449;-61
2022/10/28 03:01:47;;;;;;;5.35;4.20;;;11.90;85.50;;;;;;4998422;28;20030;-61
2022/10/28 03:04:13;;;;;;;7.75;3.72;;;11.90;85.50;;;;;;4999177;28;20042;-61
2022/10/28 03:06:38;;;;;;;5.57;3.72;;;11.90;85.60;;;;;;4998259;28;20144;-61
2022/10/28 03:09:04;;;;;;;4.93;3.70;;;11.90;85.60;;;;;;4997558;28;20029;-61
2022/10/28 03:11:29;;;;;;;6.55;4.00;;;11.90;85.70;;;;;;4991691;28;20049;-59
2022/10/28 03:13:55;;;;;;;3.72;3.30;;;11.90;85.70;;;;;;5004698;28;20038;-60
2022/10/28 03:16:21;;;;;;;6.65;3.58;;;11.80;85.50;;;;;;4995106;28;20034;-61
2022/10/28 03:18:46;;;;;;;6.82;3.67;;;11.80;85.60;;;;;;4995135;28;20117;-59
2022/10/28 03:21:12;;;;;;;4.93;3.65;;;11.80;85.60;;;;;;4999578;28;20026;-60
2022/10/28 03:23:37;;;;;;;4.43;3.78;;;11.80;85.60;;;;;;4998014;28;20065;-61
2022/10/28 03:26:03;;;;;;;6.45;3.90;;;11.80;85.70;;;;;;5004090;28;20049;-59
2022/10/28 03:28:28;;;;;;;7.03;4.15;;;11.80;85.90;;;;;;4999517;28;20057;-60
2022/10/28 03:30:54;;;;;;;7.90;4.30;;;11.80;85.90;;;;;;5000315;28;20619;-61
2022/10/28 03:33:19;;;;;;;6.63;4.55;;;11.80;85.70;;;;;;5000700;28;20488;-60
2022/10/28 03:35:45;;;;;;;8.15;4.22;;;11.80;85.70;;;;;;5003948;28;20270;-61
2022/10/28 03:38:10;;;;;;;6.43;4.75;;;11.80;85.60;;;;;;4999390;28;20295;-60
2022/10/28 03:40:36;;;;;;;5.07;4.45;;;11.70;85.50;;;;;;4998588;28;20400;-60
2022/10/28 03:43:02;;;;;;;6.05;4.47;;;11.70;85.70;;;;;;4999987;28;20119;-61
2022/10/28 03:45:27;;;;;;;5.72;4.22;;;11.70;85.70;;;;;;5001620;28;20030;-60
2022/10/28 03:47:53;;;;;;;8.23;4.07;;;11.70;85.60;;;;;;5009020;28;20034;-60
2022/10/28 03:50:18;;;;;;;7.45;3.85;;;11.70;85.50;;;;;;5003670;28;20049;-60
2022/10/28 03:52:44;;;;;;;7.05;3.58;;;11.70;85.30;;;;;;4998392;28;20033;-60
2022/10/28 03:55:09;;;;;;;15.27;8.90;;;11.60;85.30;;;;;;4999994;28;20590;-60
2022/10/28 03:57:35;;;;;;;18.33;12.95;;;11.60;85.50;;;;;;4999905;28;20453;-59
2022/10/28 04:00:01;;;;;;;30.80;20.67;;;11.60;85.50;;;;;;4998049;28;20080;-62
2022/10/28 04:02:27;;;;;;;20.60;13.07;;;11.60;85.30;;;;;;5002856;28;20058;-61
2022/10/28 04:04:52;;;;;;;11.18;7.80;;;11.60;85.20;;;;;;5000069;28;20073;-59
2022/10/28 04:07:18;;;;;;;9.88;5.60;;;11.50;85.10;;;;;;5001689;28;20033;-59
2022/10/28 04:09:43;;;;;;;9.63;4.88;;;11.50;85.30;;;;;;5000082;28;20067;-58
2022/10/28 04:12:10;;;;;;;10.43;6.00;;;11.50;85.50;;;;;;4999121;28;20530;-59
2022/10/28 04:14:36;;;;;;;7.75;4.32;;;11.50;85.50;;;;;;4998271;28;20037;-59
2022/10/28 04:17:01;;;;;;;6.03;3.85;;;11.40;85.40;;;;;;4998593;28;20100;-61
2022/10/28 04:19:27;;;;;;;6.03;3.80;;;11.40;85.70;;;;;;4998985;28;20040;-61
2022/10/28 04:21:52;;;;;;;8.90;4.35;;;11.30;85.70;;;;;;5004118;28;20057;-58
2022/10/28 04:24:18;;;;;;;7.68;4.20;;;11.30;85.90;;;;;;5000317;28;20425;-60
2022/10/28 04:26:43;;;;;;;7.00;4.18;;;11.30;86.00;;;;;;4998566;28;20032;-60
2022/10/28 04:29:09;;;;;;;11.23;4.47;;;11.30;86.30;;;;;;4999784;28;20038;-61
2022/10/28 04:31:34;;;;;;;11.57;5.57;;;11.30;86.40;;;;;;4987414;28;20564;-59
2022/10/28 04:34:00;;;;;;;10.60;6.68;;;11.40;86.40;;;;;;4990107;28;20042;-61
2022/10/28 04:36:25;;;;;;;13.95;6.07;;;11.30;86.30;;;;;;4998274;28;20116;-60
2022/10/28 04:38:51;;;;;;;8.88;6.60;;;11.40;86.30;;;;;;4999008;28;20040;-61
2022/10/28 04:41:17;;;;;;;13.00;7.10;;;11.40;86.30;;;;;;4994455;28;20489;-60
2022/10/28 04:43:43;;;;;;;11.38;7.28;;;11.40;86.20;;;;;;4994609;28;20034;-60
2022/10/28 04:46:08;;;;;;;11.60;6.82;;;11.40;86.30;;;;;;4998055;28;20061;-61
2022/10/28 04:48:34;;;;;;;9.88;6.00;;;11.40;86.20;;;;;;4998000;28;20041;-61
2022/10/28 04:51:00;;;;;;;7.75;6.00;;;11.40;86.20;;;;;;4993770;28;21009;-61
2022/10/28 04:53:26;;;;;;;14.15;7.75;;;11.40;86.30;;;;;;5001630;28;20680;-59
2022/10/28 04:55:56;;;;;;;15.55;7.15;;;11.50;86.30;;;;;;5001252;28;20904;-61
2022/10/28 04:58:22;;;;;;;18.85;8.93;;;11.40;86.40;;;;;;4996595;28;20038;-61
2022/10/28 05:00:48;;;;;;;12.68;7.55;;;11.40;86.40;;;;;;4998254;28;20038;-59
2022/10/28 05:03:14;;;;;;;12.43;7.47;;;11.40;86.50;;;;;;4997052;28;20045;-61
2022/10/28 05:05:39;;;;;;;14.73;8.55;;;11.40;86.60;;;;;;4999305;28;20404;-61
2022/10/28 05:08:06;;;;;;;12.00;6.78;;;11.40;86.70;;;;;;4994718;28;20038;-61
2022/10/28 05:10:32;;;;;;;16.30;8.25;;;11.40;86.70;;;;;;4996051;28;20045;-61
2022/10/28 05:12:58;;;;;;;21.88;8.27;;;11.30;86.80;;;;;;4994678;28;20037;-61
2022/10/28 05:15:25;;;;;;;19.23;8.45;;;11.30;86.70;;;;;;4998850;28;20056;-60
2022/10/28 05:17:51;;;;;;;17.35;7.00;;;11.30;86.60;;;;;;4998878;28;20523;-61
2022/10/28 05:20:18;;;;;;;16.27;7.35;;;11.30;86.60;;;;;;4998122;28;20038;-61
2022/10/28 05:22:45;;;;;;;14.57;6.70;;;11.30;86.50;;;;;;4997080;28;20484;-60
2022/10/28 05:25:11;;;;;;;11.98;6.53;;;11.30;86.50;;;;;;5000231;28;20077;-60
2022/10/28 05:27:36;;;;;;;13.55;5.95;;;11.30;86.40;;;;;;4997930;28;20562;-60
2022/10/28 05:30:03;;;;;;;8.50;5.20;;;11.30;86.40;;;;;;4996568;28;20037;-61
2022/10/28 05:32:28;;;;;;;7.18;4.35;;;11.30;86.60;;;;;;4995573;28;20042;-61
2022/10/28 05:34:54;;;;;;;9.77;4.88;;;11.30;86.60;;;;;;4998855;28;20044;-62
2022/10/28 05:37:19;;;;;;;7.65;4.22;;;11.40;86.60;;;;;;5000012;28;20324;-60
2022/10/28 05:39:45;;;;;;;7.65;4.85;;;11.30;86.60;;;;;;4998937;28;20115;-61
2022/10/28 05:42:11;;;;;;;9.23;6.00;;;11.30;86.60;;;;;;4994360;28;20258;-63
2022/10/28 05:44:36;;;;;;;12.25;6.50;;;11.30;86.70;;;;;;4996188;28;20052;-63
2022/10/28 05:47:02;;;;;;;13.43;6.53;;;11.40;86.90;;;;;;4998324;28;20026;-62
2022/10/28 05:49:27;;;;;;;17.55;6.97;;;11.30;86.80;;;;;;4995596;28;20057;-63
2022/10/28 05:51:53;;;;;;;20.27;7.35;;;11.30;86.80;;;;;;4996144;28;20060;-61
2022/10/28 05:54:18;;;;;;;15.32;7.40;;;11.30;86.80;;;;;;4995774;28;20041;-60
2022/10/28 05:56:44;;;;;;;13.45;6.28;;;11.30;86.90;;;;;;4998732;28;20502;-60
2022/10/28 05:59:10;;;;;;;11.43;5.35;;;11.30;86.90;;;;;;5001224;28;20127;-61
2022/10/28 06:01:35;;;;;;;9.68;5.63;;;11.30;86.90;;;;;;4998103;28;20105;-63
2022/10/28 06:04:01;;;;;;;12.20;5.10;;;11.30;86.90;;;;;;4997207;28;20035;-61
2022/10/28 06:06:27;;;;;;;16.23;5.22;;;11.40;87.10;;;;;;4998073;28;20500;-63
2022/10/28 06:08:53;;;;;;;10.82;5.28;;;11.30;87.10;;;;;;4993920;28;20044;-60
2022/10/28 06:11:18;;;;;;;11.50;6.00;;;11.40;87.30;;;;;;4994328;28;20045;-63
2022/10/28 06:13:44;;;;;;;11.80;6.13;;;11.40;87.40;;;;;;4998773;28;20112;-63
2022/10/28 06:16:09;;;;;;;13.88;6.35;;;11.40;87.40;;;;;;4992866;28;20498;-62
2022/10/28 06:18:35;;;;;;;11.15;6.68;;;11.40;87.30;;;;;;4995802;28;20450;-62
2022/10/28 06:21:00;;;;;;;16.58;8.93;;;11.50;87.40;;;;;;4994932;28;20044;-62
2022/10/28 06:23:27;;;;;;;17.50;9.25;;;11.50;87.40;;;;;;4998096;28;20321;-62
2022/10/28 06:26:01;;;;;;;19.23;9.07;;;11.60;87.60;;;;;;4996035;28;20480;-63
2022/10/28 06:28:26;;;;;;;22.30;7.68;;;11.50;87.80;;;;;;4997359;28;20034;-63
2022/10/28 06:30:52;;;;;;;16.52;7.28;;;11.50;87.70;;;;;;4997104;28;20405;-63
2022/10/28 06:33:18;;;;;;;21.00;8.18;;;11.60;88.00;;;;;;4993096;28;20030;-63
2022/10/28 06:35:44;;;;;;;18.10;6.88;;;11.60;89.20;;;;;;4998495;28;20038;-63
2022/10/28 06:38:09;;;;;;;18.70;5.70;;;11.60;88.50;;;;;;4997562;28;20038;-63
2022/10/28 06:40:35;;;;;;;24.63;6.13;;;11.60;88.60;;;;;;4998572;28;20125;-61
2022/10/28 06:43:02;;;;;;;13.45;5.22;;;11.60;89.00;;;;;;4994545;28;20045;-61
2022/10/28 06:45:33;;;;;;;16.30;4.65;;;11.70;89.30;;;;;;4992556;28;20033;-64
2022/10/28 06:48:00;;;;;;;14.82;4.93;;;11.70;89.50;;;;;;4997288;28;20042;-61
2022/10/28 06:50:27;;;;;;;16.27;6.18;;;11.80;89.80;;;;;;4992279;28;20494;-64
2022/10/28 06:52:56;;;;;;;26.90;8.88;;;11.80;89.90;;;;;;4995205;28;20045;-62
2022/10/28 06:55:23;;;;;;;17.38;8.00;;;11.80;90.00;;;;;;4992860;28;20522;-60
2022/10/28 06:57:48;;;;;;;20.33;7.05;;;11.90;89.90;;;;;;4993403;28;20034;-63
2022/10/28 07:00:15;;;;;;;19.73;7.03;;;11.90;89.70;;;;;;4999326;28;20448;-61
2022/10/28 07:02:40;;;;;;;12.77;5.88;;;12.00;89.50;;;;;;5000193;28;20391;-63
2022/10/28 07:05:06;;;;;;;20.45;5.55;;;12.00;89.50;;;;;;4995226;28;20418;-60
2022/10/28 07:07:32;;;;;;;13.38;5.22;;;12.10;89.50;;;;;;4997049;28;20135;-61
2022/10/28 07:09:58;;;;;;;13.25;5.32;;;12.10;89.40;;;;;;4996650;28;20038;-62
2022/10/28 07:12:24;;;;;;;11.35;4.63;;;12.20;89.50;;;;;;4998030;28;20131;-63
2022/10/28 07:14:49;;;;;;;13.57;5.30;;;12.20;89.50;;;;;;5000534;28;20038;-63
2022/10/28 07:17:15;;;;;;;13.23;4.97;;;12.20;89.50;;;;;;5000322;28;20069;-62
2022/10/28 07:19:40;;;;;;;10.68;5.28;;;12.30;89.70;;;;;;4996198;28;20038;-61
2022/10/28 07:22:06;;;;;;;8.18;4.68;;;12.30;89.70;;;;;;4996963;28;21026;-63
2022/10/28 07:24:31;;;;;;;12.57;4.90;;;12.30;89.90;;;;;;4998829;28;20115;-63
2022/10/28 07:26:57;;;;;;;13.85;6.05;;;12.40;89.80;;;;;;4999885;28;20065;-63
2022/10/28 07:29:22;;;;;;;22.15;6.60;;;12.40;89.80;;;;;;4998151;28;20061;-63
2022/10/28 07:31:48;;;;;;;17.77;7.20;;;12.50;89.90;;;;;;4997659;28;20431;-63
2022/10/28 07:34:14;;;;;;;13.90;7.18;;;12.60;89.70;;;;;;4995898;28;20802;-63
2022/10/28 07:36:39;;;;;;;17.45;7.20;;;12.60;89.60;;;;;;4997244;28;20129;-62
2022/10/28 07:39:05;;;;;;;14.35;7.15;;;12.70;89.60;;;;;;4997099;28;20386;-63
2022/10/28 07:41:30;;;;;;;14.80;7.50;;;12.70;89.70;;;;;;4996896;28;20034;-63
2022/10/28 07:43:56;;;;;;;15.55;6.97;;;12.80;89.90;;;;;;4993142;28;20666;-63
2022/10/28 07:46:22;;;;;;;17.23;6.93;;;12.80;89.90;;;;;;4998143;28;20108;-64
2022/10/28 07:48:47;;;;;;;14.90;6.35;;;12.80;89.90;;;;;;4996201;28;20745;-61
2022/10/28 07:51:14;;;;;;;6.47;5.10;;;12.90;89.90;;;;;;4997717;28;20221;-62
2022/10/28 07:53:40;;;;;;;12.05;6.40;;;13.00;90.00;;;;;;4998615;28;20053;-61
2022/10/28 07:56:12;;;;;;;12.20;6.30;;;13.00;90.00;;;;;;4999240;28;20476;-63
2022/10/28 07:58:38;;;;;;;13.07;7.45;;;13.10;90.00;;;;;;4999316;28;20072;-61
2022/10/28 08:01:06;;;;;;;16.42;7.28;;;13.10;89.90;;;;;;4999655;28;20554;-61
2022/10/28 08:03:32;;;;;;;13.90;6.07;;;13.20;89.80;;;;;;4955985;28;1089223;-62
2022/10/28 08:06:02;;;;;;;12.10;5.60;;;13.20;89.50;;;;;;5001875;28;20076;-64
2022/10/28 08:08:28;;;;;;;19.65;6.93;;;13.30;89.50;;;;;;5000990;28;20057;-63
2022/10/28 08:10:54;;;;;;;16.50;7.75;;;13.40;89.60;;;;;;4995876;28;20088;-62
2022/10/28 08:13:19;;;;;;;19.15;10.10;;;13.40;89.50;;;;;;4996982;28;20532;-63
2022/10/28 08:15:55;;;;;;;37.17;20.13;;;13.50;89.50;;;;;;4997479;28;20038;-63
2022/10/28 08:18:21;;;;;;;36.97;20.77;;;13.50;89.60;;;;;;4999717;28;20034;-61
2022/10/28 08:20:47;;;;;;;26.77;17.35;;;13.60;89.50;;;;;;4997590;28;20068;-63
2022/10/28 08:23:13;;;;;;;20.27;11.20;;;13.60;89.50;;;;;;4997105;28;20034;-63
2022/10/28 08:25:47;;;;;;;17.00;6.95;;;13.70;89.70;;;;;;5001233;28;20528;-62
2022/10/28 08:28:13;;;;;;;12.43;5.63;;;13.80;89.90;;;;;;4999821;28;20403;-62
2022/10/28 08:30:38;;;;;;;12.43;4.93;;;13.80;89.60;;;;;;4997603;28;20049;-63
2022/10/28 08:33:04;;;;;;;12.13;5.10;;;13.90;89.50;;;;;;4998314;28;20027;-63
2022/10/28 08:35:30;;;;;;;11.38;5.25;;;13.90;89.20;;;;;;5000893;28;20042;-64
2022/10/28 08:37:55;;;;;;;8.73;4.15;;;14.00;89.00;;;;;;4999056;28;20042;-63
2022/10/28 08:40:31;;;;;;;6.05;3.30;;;14.00;89.10;;;;;;4998250;28;20136;-63
2022/10/28 08:43:04;;;;;;;6.63;3.15;;;14.10;89.30;;;;;;4999728;28;20070;-63
2022/10/28 08:45:52;;;;;;;9.18;3.47;;;14.20;89.40;;;;;;4957628;28;20041;-63
2022/10/28 08:48:43;;;;;;;7.00;3.00;;;14.30;89.40;;;;;;4991814;28;20046;-60
2022/10/28 08:51:40;;;;;;;8.23;3.10;;;14.30;89.50;;;;;;4989807;28;20460;-64
2022/10/28 08:54:16;;;;;;;6.60;3.53;;;14.40;89.40;;;;;;4997916;28;20026;-62
2022/10/28 08:56:45;;;;;;;9.85;3.88;;;14.50;89.30;;;;;;4993408;28;20037;-62
2022/10/28 08:59:24;;;;;;;10.35;3.58;;;14.60;89.30;;;;;;4998657;28;20633;-63
2022/10/28 09:01:55;;;;;;;10.93;3.85;;;14.70;89.30;;;;;;4996953;28;20061;-63
2022/10/28 09:04:42;;;;;;;10.40;3.75;;;14.80;89.20;;;;;;4997127;28;20124;-64
2022/10/28 09:07:19;;;;;;;8.82;3.65;;;14.90;89.00;;;;;;4998820;28;20172;-62
2022/10/28 09:09:47;;;;;;;7.88;2.40;;;15.00;89.00;;;;;;4997145;28;20030;-63
2022/10/28 09:12:45;;;;;;;8.75;2.63;;;15.10;88.50;;;;;;4993726;28;20045;-62
2022/10/28 09:15:24;;;;;;;6.28;2.30;;;15.20;88.00;;;;;;5001005;28;20046;-63
2022/10/28 09:17:53;;;;;;;6.93;2.38;;;15.30;87.30;;;;;;4999097;28;20069;-63
2022/10/28 09:20:57;;;;;;;4.85;2.20;;;15.40;87.40;;;;;;4996272;28;20048;-64
2022/10/28 09:23:31;;;;;;;4.20;1.75;;;15.50;87.30;;;;;;4970731;28;20065;-62
2022/10/28 09:26:48;;;;;;;5.05;2.00;;;15.60;87.10;;;;;;4995911;28;20581;-63
2022/10/28 09:29:46;;;;;;;5.65;1.90;;;15.70;86.50;;;;;;4953900;28;20533;-63
2022/10/28 09:32:33;;;;;;;6.85;2.10;;;15.80;85.40;;;;;;4949689;28;20042;-63
2022/10/28 09:35:05;;;;;;;5.90;2.15;;;15.90;84.90;;;;;;4990598;28;20033;-62
2022/10/28 09:37:36;;;;;;;7.45;2.80;;;16.00;85.00;;;;;;4999916;28;20121;-63
2022/10/28 09:40:17;;;;;;;5.50;2.08;;;16.10;84.90;;;;;;5000139;28;22598;-64
2022/10/28 09:43:09;;;;;;;6.88;1.88;;;16.10;84.60;;;;;;4998592;28;20030;-63
2022/10/28 09:45:39;;;;;;;5.57;1.88;;;16.30;84.70;;;;;;4997724;28;20053;-63
2022/10/28 09:48:27;;;;;;;4.75;2.30;;;16.30;84.60;;;;;;4999495;28;20482;-64
2022/10/28 09:50:55;;;;;;;3.95;1.77;;;16.40;83.80;;;;;;4985009;28;20065;-63
2022/10/28 09:53:38;;;;;;;5.85;1.77;;;16.50;84.30;;;;;;4995627;28;20030;-63
2022/10/28 09:56:05;;;;;;;6.28;2.10;;;16.50;83.10;;;;;;4996053;28;22244;-64
2022/10/28 09:58:32;;;;;;;3.33;1.65;;;16.60;83.40;;;;;;4996342;28;20467;-61
2022/10/28 10:00:58;;;;;;;4.18;2.00;;;16.70;82.90;;;;;;4995027;28;20125;-64
2022/10/28 10:03:24;;;;;;;5.03;2.05;;;16.70;82.60;;;;;;4995628;28;20037;-63
2022/10/28 10:05:54;;;;;;;9.68;1.85;;;16.80;83.40;;;;;;4999759;28;20129;-64
2022/10/28 10:08:21;;;;;;;6.93;2.00;;;16.90;82.30;;;;;;4999232;28;20048;-63
2022/10/28 10:10:53;;;;;;;5.30;2.38;;;16.90;82.10;;;;;;4994480;28;20044;-63
2022/10/28 10:13:26;;;;;;;7.50;2.00;;;17.00;81.80;;;;;;4997353;28;20034;-63
2022/10/28 10:15:59;;;;;;;9.27;2.45;;;17.00;81.00;;;;;;4999499;28;20320;-63
2022/10/28 10:18:28;;;;;;;10.48;2.30;;;17.10;81.20;;;;;;4999236;28;20038;-63
2022/10/28 10:20:58;;;;;;;11.13;2.40;;;17.20;81.10;;;;;;4999865;28;20038;-63
2022/10/28 10:23:33;;;;;;;11.32;2.50;;;17.20;80.60;;;;;;4998000;28;20518;-63
2022/10/28 10:26:05;;;;;;;6.27;2.40;;;17.30;80.00;;;;;;5000988;28;20040;-62
2022/10/28 10:28:32;;;;;;;4.80;2.20;;;17.30;80.00;;;;;;4999760;28;20403;-64
2022/10/28 10:31:02;;;;;;;5.85;1.67;;;17.40;80.10;;;;;;5000696;28;20022;-61
2022/10/28 10:33:37;;;;;;;6.18;1.85;;;17.40;79.50;;;;;;4999463;28;20033;-64
2022/10/28 10:36:08;;;;;;;7.88;1.90;;;17.50;79.30;;;;;;5001803;28;20030;-63
2022/10/28 10:38:34;;;;;;;9.63;2.00;;;17.50;78.90;;;;;;4998316;28;20026;-62
2022/10/28 10:41:00;;;;;;;5.13;1.88;;;17.60;79.20;;;;;;5001383;28;20033;-63
2022/10/28 10:43:34;;;;;;;8.15;2.10;;;17.60;79.10;;;;;;4999160;28;20037;-64
2022/10/28 10:46:14;;;;;;;8.55;2.00;;;17.70;78.70;;;;;;4992318;28;20030;-63
2022/10/28 10:48:40;;;;;;;4.25;1.98;;;17.70;78.40;;;;;;4998837;28;20030;-64
2022/10/28 10:51:10;;;;;;;2.67;1.80;;;17.80;79.30;;;;;;4995713;28;20030;-63
2022/10/28 10:53:38;;;;;;;5.88;2.00;;;17.80;78.70;;;;;;4995020;28;20184;-63
2022/10/28 10:56:07;;;;;;;2.80;1.70;;;17.90;78.90;;;;;;4997800;28;20030;-62
2022/10/28 10:58:50;;;;;;;3.00;1.73;;;17.90;79.10;;;;;;4992806;28;20121;-63
2022/10/28 11:01:22;;;;;;;5.32;1.70;;;18.00;78.20;;;;;;4997543;28;20492;-64
2022/10/28 11:03:57;;;;;;;2.38;1.83;;;18.10;78.40;;;;;;4994088;28;20034;-64
2022/10/28 11:06:27;;;;;;;4.15;1.83;;;18.20;78.20;;;;;;4996425;28;20092;-64
2022/10/28 11:09:02;;;;;;;8.55;1.83;;;18.20;78.30;;;;;;4996135;28;20129;-62
2022/10/28 11:11:36;;;;;;;4.03;1.80;;;18.30;78.20;;;;;;4997337;28;20039;-64
2022/10/28 11:14:18;;;;;;;5.23;2.00;;;18.40;78.30;;;;;;4997580;28;20048;-63
2022/10/28 11:17:01;;;;;;;5.93;1.90;;;18.50;78.20;;;;;;4998203;28;20099;-64
2022/10/28 11:19:32;;;;;;;9.45;2.05;;;18.60;77.90;;;;;;4997020;28;20034;-64
2022/10/28 11:22:35;;;;;;;5.13;2.05;;;18.70;77.70;;;;;;4995289;28;20041;-64
2022/10/28 11:25:28;;;;;;;4.47;1.98;;;18.80;76.90;;;;;;4997987;28;20125;-64
2022/10/28 11:28:25;;;;;;;7.05;1.95;;;18.90;76.80;;;;;;4998372;28;20121;-64
2022/10/28 11:30:52;;;;;;;5.90;1.70;;;19.00;76.60;;;;;;4997246;28;20030;-61
2022/10/28 11:33:25;;;;;;;3.65;2.03;;;19.20;77.20;;;;;;4995403;28;20088;-64
2022/10/28 11:36:13;;;;;;;7.75;2.22;;;19.30;76.40;;;;;;4997685;28;20054;-62
2022/10/28 11:38:58;;;;;;;5.32;1.75;;;19.40;76.70;;;;;;5000737;28;20034;-63
2022/10/28 11:41:36;;;;;;;7.70;2.03;;;19.50;75.40;;;;;;5000344;28;20072;-63
2022/10/28 11:44:16;;;;;;;4.53;1.85;;;19.70;75.80;;;;;;5000151;28;20048;-64
2022/10/28 11:46:57;;;;;;;3.83;2.10;;;19.80;76.00;;;;;;5000377;28;20026;-63
2022/10/28 11:49:49;;;;;;;4.28;2.03;;;19.90;75.30;;;;;;5000964;28;20030;-63
2022/10/28 11:52:57;;;;;;;7.35;2.20;;;20.00;74.80;;;;;;4998828;28;20046;-61
2022/10/28 11:55:32;;;;;;;5.57;2.15;;;20.10;73.90;;;;;;5002060;28;20116;-64
2022/10/28 11:58:10;;;;;;;4.45;2.08;;;20.20;75.30;;;;;;4998432;28;20033;-63
2022/10/28 12:01:03;;;;;;;4.80;2.22;;;20.30;74.90;;;;;;4998591;28;20520;-64
2022/10/28 12:03:51;;;;;;;8.93;2.13;;;20.40;73.70;;;;;;4998351;28;20058;-64
2022/10/28 12:06:58;;;;;;;7.88;2.00;;;20.50;73.00;;;;;;5001226;28;20563;-64
2022/10/28 12:09:37;;;;;;;8.98;1.90;;;20.60;73.10;;;;;;4961997;28;20041;-64
2022/10/28 12:12:15;;;;;;;3.88;2.00;;;20.70;72.30;;;;;;4996454;28;20034;-62
2022/10/28 12:14:55;;;;;;;7.65;2.22;;;20.70;73.00;;;;;;5000331;28;20070;-64
2022/10/28 12:17:39;;;;;;;6.57;1.95;;;20.80;72.00;;;;;;5001193;28;20525;-64
2022/10/28 12:20:19;;;;;;;4.18;2.10;;;20.80;72.00;;;;;;5000182;28;20141;-64
2022/10/28 12:22:49;;;;;;;7.03;2.00;;;20.90;72.20;;;;;;5000757;28;20117;-64
2022/10/28 12:25:22;;;;;;;3.42;1.98;;;20.90;72.80;;;;;;5001106;28;20041;-64
2022/10/28 12:27:50;;;;;;;7.85;2.53;;;21.00;72.50;;;;;;4996962;28;20113;-63
2022/10/28 12:30:20;;;;;;;5.82;1.80;;;21.00;72.60;;;;;;4997096;28;20038;-64
2022/10/28 12:32:50;;;;;;;3.13;1.75;;;21.10;72.10;;;;;;4998629;28;20044;-65
2022/10/28 12:35:18;;;;;;;5.88;1.95;;;21.10;71.90;;;;;;4998540;28;20038;-62
2022/10/28 12:38:07;;;;;;;4.65;1.80;;;21.10;71.90;;;;;;5004471;28;20042;-64
2022/10/28 12:40:55;;;;;;;4.15;2.08;;;21.20;71.20;;;;;;4999909;28;20034;-62
2022/10/28 12:43:32;;;;;;;5.03;2.00;;;21.20;71.10;;;;;;4997013;28;20140;-64
2022/10/28 12:45:59;;;;;;;4.90;2.05;;;21.30;70.90;;;;;;5002589;28;20033;-64
2022/10/28 12:48:35;;;;;;;3.65;1.77;;;21.30;71.60;;;;;;5004690;28;20129;-63
2022/10/28 12:51:16;;;;;;;4.78;1.77;;;21.40;71.00;;;;;;5000928;28;20041;-64
2022/10/28 12:54:06;;;;;;;6.47;2.25;;;21.40;70.70;;;;;;5004974;28;20034;-64
2022/10/28 12:56:36;;;;;;;5.45;2.03;;;21.50;70.70;;;;;;5002811;28;20026;-64
2022/10/28 12:59:29;;;;;;;5.70;1.77;;;21.50;71.10;;;;;;5004843;28;20405;-64
2022/10/28 13:01:59;;;;;;;6.13;1.90;;;21.60;70.10;;;;;;5004830;28;20393;-64
2022/10/28 13:04:26;;;;;;;3.90;2.05;;;21.60;71.10;;;;;;5005441;28;20041;-63
2022/10/28 13:06:57;;;;;;;3.92;1.90;;;21.70;70.90;;;;;;5001661;28;20030;-64